LHPR/QGY METAR and TAF weather

Enter ICAO airport designator
Station Type Date Time Source
LHPR METAR 2022/06/26 08:15 UTC NOAA

LHPR 260815Z AUTO VRB03KT CAVOK 25/16 Q1016 NOSIG


Station Type Date Time Source
LHPR Decoded METAR 2022/06/26 08:15 UTC NOAA

Station name not available
Jun 26, 2022 - 04:15 AM EDT / 2022.06.26 0815 UTC
Wind: Variable at 3 MPH (3 KT):0
Visibility: greater than 7 mile(s):0
Temperature: 77 F (25 C)
Dew Point: 60 F (16 C)
Relative Humidity: 57%
Pressure (altimeter): 30.00 in. Hg (1016 hPa)
ob: LHPR 260815Z AUTO VRB03KT CAVOK 25/16 Q1016 NOSIG
cycle: 8

Station Type Date Time Source
LHPR TAF UTC NOAA

Error!

Example: see airport list